Airfield :
LOGIN :

Register | Disclaimer

   EN    FR    IT 

 










Legend :    VFR   Marginal VFR   IFR   Intensive IFR   Very Intensive IFR
Visi :
Ceiling :
>= 8 km
>= 3000ft
5 to 8 km
1000 to 3000 ft
1500m to 5 km
500 to 1000 ft
800 to 1500m
200 to 500 ft
< 800m
< 200 ft
Symbols :   Thunderstorms  Fog  Heavy snow  Heavy precipitations  Wind > 20 kt
SIGMETs :     Misc.  Thunderstorms  Icing  Turbulence  Mountain Waves  Volcanic Ashes







- Airport Elevation : 309 ft
- IATA code : FNI
- Download approach charts


LFTW - Nîmes Garons

CURRENT METAR :
  • 222330Z AUTO 13004KT 8000 OVC006 23/21 Q1018

EXPIRED METARs :
  • 222300Z AUTO 13003KT 100V170 8000 OVC005 23/21 Q1018
  • 222230Z AUTO VRB02KT 8000 BKN006 23/21 Q1018
  • 222200Z AUTO 18003KT 8000 NSC 22/21 Q1018
  • 222130Z AUTO VRB03KT 9000 FEW007 23/21 Q1018
  • 222100Z AUTO 16005KT 140V200 9999 OVC007 23/21 Q1018

TAF TAF LFTW
Valid from the 22 at 15:00 until the 23 at 15:00 UTC


221400Z 2215/2315 20012KT CAVOK
BECMG 2218/2220 VRB02KT
TEMPO 2300/2307 1200 BR
BECMG 2310/2312 20012KT
TEMPO 2313/2315 BKN030TCU
No reported NOTAMs for that airfield.



MET'MAP, your aeronautical weather chart ! - Copyright ORBIFLY December 2007 - Disclaimer

ORBIFLY MET'MAP TEAM :

Programming & Development : Alexandra Zaïnal
Concept & Development : Baudouin d'Aumeries
Co-Development & Prog : Marc-Olivier Méhu
Technical & hardware support : Manuel Goepfert

Contact : metmap@orbifly.com




SOURCES & CREDITS :

   NOAA